createdAt,value
2018-04-18T00:01:58.748Z,102605.95
2018-04-18T00:04:33.345Z,102608.66
2018-04-18T00:07:08.304Z,102609.52
2018-04-18T00:09:43.011Z,102607.69
2018-04-18T00:12:17.845Z,102608.22
2018-04-18T00:14:52.448Z,102610.39
2018-04-18T00:17:27.545Z,102609.52
2018-04-18T00:20:02.004Z,102606.38
2018-04-18T00:22:37.103Z,102614.50
2018-04-18T00:25:11.771Z,102615.38
2018-04-18T00:27:46.830Z,102615.80
2018-04-18T00:30:22.175Z,102614.45
2018-04-18T00:32:56.733Z,102612.61
2018-04-18T00:35:31.411Z,102615.80
2018-04-18T00:38:06.464Z,102616.27
2018-04-18T00:40:41.123Z,102619.41
2018-04-18T00:43:16.127Z,102621.20
2018-04-18T00:45:50.854Z,102623.86
2018-04-18T00:48:26.000Z,102625.26
2018-04-18T00:51:00.435Z,102624.30
2018-04-18T00:53:35.449Z,102623.86
2018-04-18T00:56:10.113Z,102621.59
2018-04-18T00:58:45.228Z,102627.88
2018-04-18T01:01:19.751Z,102622.95
2018-04-18T01:03:54.452Z,102624.30
2018-04-18T01:06:29.125Z,102621.11
2018-04-18T01:09:03.709Z,102624.30
2018-04-18T01:11:38.257Z,102628.84
2018-04-18T01:14:12.973Z,102631.05
2018-04-18T01:16:47.471Z,102627.44
2018-04-18T01:19:22.210Z,102635.55
2018-04-18T01:21:56.683Z,102631.05
2018-04-18T01:24:31.457Z,102636.45
2018-04-18T01:27:06.119Z,102633.33
2018-04-18T01:29:41.105Z,102636.89
2018-04-18T01:32:15.785Z,102631.11
2018-04-18T01:34:51.076Z,102633.28
2018-04-18T01:37:25.742Z,102635.11
2018-04-18T01:40:00.727Z,102635.55
2018-04-18T01:42:35.539Z,102635.98
2018-04-18T01:45:10.222Z,102636.45
2018-04-18T01:47:45.008Z,102640.95
2018-04-18T01:50:19.958Z,102644.09
2018-04-18T01:52:54.615Z,102645.88
2018-04-18T01:55:29.615Z,102643.61
2018-04-18T01:58:04.238Z,102645.44
2018-04-18T02:00:39.172Z,102644.96
2018-04-18T02:03:13.834Z,102653.07
2018-04-18T02:05:48.939Z,102652.16
2018-04-18T02:08:23.408Z,102654.42
2018-04-18T02:10:58.496Z,102657.13
2018-04-18T02:13:33.114Z,102659.83
2018-04-18T02:16:08.135Z,102657.08
2018-04-18T02:18:42.782Z,102655.73
2018-04-18T02:21:17.818Z,102666.16
2018-04-18T02:23:52.373Z,102665.24
2018-04-18T02:26:27.355Z,102664.37
2018-04-18T02:29:01.856Z,102664.81
2018-04-18T02:31:36.716Z,102670.70
2018-04-18T02:34:11.052Z,102672.11
2018-04-18T02:36:45.967Z,102675.30
2018-04-18T02:39:20.487Z,102673.02
2018-04-18T02:41:55.418Z,102672.16
2018-04-18T02:44:30.080Z,102681.19
2018-04-18T02:47:06.238Z,102680.71
2018-04-18T02:49:40.627Z,102681.63
2018-04-18T02:52:15.782Z,102681.19
2018-04-18T02:54:50.376Z,102688.48
2018-04-18T02:57:25.413Z,102686.69
2018-04-18T03:00:00.050Z,102694.81
2018-04-18T03:02:35.111Z,102697.08
2018-04-18T03:05:09.695Z,102692.11
2018-04-18T03:07:44.951Z,102701.23
2018-04-18T03:10:19.600Z,102694.52
2018-04-18T03:12:54.705Z,102696.84
2018-04-18T03:15:29.441Z,102697.84
2018-04-18T03:18:04.460Z,102698.83
2018-04-18T03:20:38.944Z,102700.77
2018-04-18T03:23:13.750Z,102704.92
2018-04-18T03:25:48.424Z,102708.26
2018-04-18T03:28:23.477Z,102707.05
2018-04-18T03:30:58.079Z,102703.91
2018-04-18T03:33:33.136Z,102712.59
2018-04-18T03:36:07.738Z,102720.36
2018-04-18T03:38:42.796Z,102712.35
2018-04-18T03:41:17.501Z,102706.03
2018-04-18T03:43:52.921Z,102717.42
2018-04-18T03:46:27.481Z,102713.88
2018-04-18T03:49:02.321Z,102712.11
2018-04-18T03:51:36.999Z,102722.05
2018-04-18T03:54:11.758Z,102720.75
2018-04-18T03:56:46.477Z,102723.97
2018-04-18T03:59:21.434Z,102722.67
2018-04-18T04:01:55.908Z,102726.33
2018-04-18T04:04:30.780Z,102736.32
2018-04-18T04:07:05.521Z,102738.15
2018-04-18T04:09:40.649Z,102734.63
2018-04-18T04:12:15.398Z,102736.47
2018-04-18T04:14:50.011Z,102741.48
2018-04-18T04:17:36.079Z,102746.48
2018-04-18T04:20:22.496Z,102746.88
2018-04-18T04:23:08.489Z,102753.34
2018-04-18T04:25:43.419Z,102758.79
2018-04-18T04:28:18.046Z,102757.48
2018-04-18T04:30:52.768Z,102753.48
2018-04-18T04:33:27.444Z,102757.14
2018-04-18T04:36:04.685Z,102762.02
2018-04-18T04:38:39.222Z,102766.98
2018-04-18T04:41:13.995Z,102768.86
2018-04-18T04:43:48.621Z,102767.56
2018-04-18T04:46:23.282Z,102767.08
2018-04-18T04:48:58.029Z,102775.19
2018-04-18T04:51:32.844Z,102778.84
2018-04-18T04:54:07.542Z,102772.61
2018-04-18T04:56:42.471Z,102779.42
2018-04-18T04:59:17.202Z,102782.59
2018-04-18T05:01:51.844Z,102783.91
2018-04-18T05:04:26.482Z,102784.82
2018-04-18T05:07:02.073Z,102792.09
2018-04-18T05:09:36.739Z,102790.80
2018-04-18T05:12:11.284Z,102794.37
2018-04-18T05:14:45.967Z,102801.68
2018-04-18T05:17:21.036Z,102801.73
2018-04-18T05:19:55.697Z,102805.34
2018-04-18T05:22:30.712Z,102809.36
2018-04-18T05:25:05.423Z,102810.70
2018-04-18T05:27:39.999Z,102811.23
2018-04-18T05:30:14.307Z,102813.58
2018-04-18T05:32:49.403Z,102817.20
2018-04-18T05:35:24.050Z,102817.63
2018-04-18T05:37:58.483Z,102822.60
2018-04-18T05:40:33.107Z,102830.71
2018-04-18T05:43:07.871Z,102825.74
2018-04-18T05:45:42.498Z,102829.92
2018-04-18T05:48:17.966Z,102824.48
2018-04-18T05:50:52.908Z,102839.34
2018-04-18T05:53:28.033Z,102839.89
2018-04-18T05:56:02.715Z,102844.39
2018-04-18T05:58:37.428Z,102844.43
2018-04-18T06:01:12.054Z,102849.79
2018-04-18T06:03:46.570Z,102850.70
2018-04-18T06:06:21.284Z,102853.48
2018-04-18T06:08:56.303Z,102851.27
2018-04-18T06:11:31.006Z,102850.36
2018-04-18T06:14:05.850Z,102852.19
2018-04-18T06:16:40.300Z,102852.19
2018-04-18T06:19:15.068Z,102861.73
2018-04-18T06:21:49.791Z,102860.85
2018-04-18T06:24:24.860Z,102863.08
2018-04-18T06:26:59.512Z,102863.55
2018-04-18T06:29:35.143Z,102865.30
2018-04-18T06:32:09.519Z,102866.61
2018-04-18T06:34:44.168Z,102869.83
2018-04-18T06:37:18.934Z,102878.37
2018-04-18T06:39:53.951Z,102870.66
2018-04-18T06:42:28.727Z,102875.58
2018-04-18T06:45:03.709Z,102878.59
2018-04-18T06:47:38.441Z,102874.45
2018-04-18T06:50:13.156Z,102875.67
2018-04-18T06:52:47.789Z,102876.50
2018-04-18T06:55:23.232Z,102875.50
2018-04-18T06:57:58.245Z,102881.30
2018-04-18T07:00:33.202Z,102882.12
2018-04-18T07:03:07.805Z,102887.44
2018-04-18T07:05:42.423Z,102888.23
2018-04-18T07:08:17.059Z,102890.89
2018-04-18T07:10:52.120Z,102891.33
2018-04-18T07:13:27.449Z,102894.55
2018-04-18T07:16:02.419Z,102899.09
2018-04-18T07:18:37.923Z,102900.95
2018-04-18T07:21:12.567Z,102906.70
2018-04-18T07:23:47.737Z,102902.61
2018-04-18T07:26:22.846Z,102900.26
2018-04-18T07:28:57.471Z,102903.66
2018-04-18T07:31:32.393Z,102906.27
2018-04-18T07:34:06.948Z,102898.00
2018-04-18T07:36:41.739Z,102897.87
2018-04-18T07:39:16.404Z,102902.70
2018-04-18T07:41:50.978Z,102908.02
2018-04-18T07:44:25.702Z,102917.39
2018-04-18T07:47:00.655Z,102919.53
2018-04-18T07:49:35.473Z,102919.02
2018-04-18T07:52:10.517Z,102929.34
2018-04-18T07:54:45.004Z,102931.08
2018-04-18T07:57:19.968Z,102933.27
2018-04-18T07:59:54.420Z,102932.70
2018-04-18T08:02:29.749Z,102935.83
2018-04-18T08:05:04.560Z,102934.91
2018-04-18T08:07:39.219Z,102947.00
2018-04-18T08:10:13.975Z,102941.11
2018-04-18T08:12:48.454Z,102937.44
2018-04-18T08:15:23.455Z,102942.33
2018-04-18T08:17:58.559Z,102943.20
2018-04-18T08:20:33.272Z,102951.31
2018-04-18T08:23:07.838Z,102948.48
2018-04-18T08:25:42.744Z,102950.73
2018-04-18T08:28:18.248Z,102952.48
2018-04-18T08:30:52.938Z,102956.97
2018-04-18T08:33:27.519Z,102956.44
2018-04-18T08:36:02.435Z,102950.99
2018-04-18T08:38:38.242Z,102951.83
2018-04-18T08:41:12.801Z,102952.74
2018-04-18T08:43:47.863Z,102953.56
2018-04-18T08:46:22.529Z,102952.65
2018-04-18T08:48:57.624Z,102959.36
2018-04-18T08:51:32.327Z,102957.05
2018-04-18T08:54:07.041Z,102954.30
2018-04-18T08:56:41.481Z,102952.47
2018-04-18T08:59:16.258Z,102949.72
2018-04-18T09:01:50.900Z,102946.97
2018-04-18T09:04:25.685Z,102947.41
2018-04-18T09:07:00.367Z,102951.41
2018-04-18T09:09:35.920Z,102949.53
2018-04-18T09:12:10.592Z,102950.80
2018-04-18T09:14:45.693Z,102946.26
2018-04-18T09:17:20.344Z,102951.63
2018-04-18T09:19:55.074Z,102958.43
2018-04-18T09:22:29.703Z,102957.43
2018-04-18T09:25:05.110Z,102961.00
2018-04-18T09:27:39.635Z,102956.91
2018-04-18T09:30:14.331Z,102961.84
2018-04-18T09:32:48.878Z,102960.05
2018-04-18T09:35:24.246Z,102961.30
2018-04-18T09:38:00.048Z,102955.41
2018-04-18T09:40:34.224Z,102954.53
2018-04-18T09:43:08.799Z,102962.56
2018-04-18T09:45:43.843Z,102958.51
2018-04-18T09:48:18.414Z,102958.98
2018-04-18T09:50:53.847Z,102959.47
2018-04-18T09:53:28.352Z,102961.66
2018-04-18T09:56:03.075Z,102959.82
2018-04-18T09:58:38.614Z,102955.77
2018-04-18T10:01:24.237Z,102953.88
2018-04-18T10:04:05.187Z,102956.83
2018-04-18T10:06:40.640Z,102951.08
2018-04-18T10:09:15.224Z,102955.14
2018-04-18T10:11:50.002Z,102947.89
2018-04-18T10:14:24.608Z,102947.45
2018-04-18T10:16:59.939Z,102937.12
2018-04-18T10:19:34.668Z,102934.84
2018-04-18T10:22:09.423Z,102938.47
2018-04-18T10:24:43.964Z,102933.53
2018-04-18T10:27:18.822Z,102933.49
2018-04-18T10:29:53.630Z,102931.27
2018-04-18T10:32:29.175Z,102927.20
2018-04-18T10:35:03.688Z,102929.48
2018-04-18T10:37:39.357Z,102942.09
2018-04-18T10:40:13.991Z,102932.57
2018-04-18T10:42:49.619Z,102934.37
2018-04-18T10:45:24.274Z,102933.88
2018-04-18T10:47:59.332Z,102926.64
2018-04-18T10:50:34.024Z,102928.03
2018-04-18T10:53:08.931Z,102932.97
2018-04-18T10:55:43.523Z,102930.25
2018-04-18T10:58:20.021Z,102924.80
2018-04-18T11:00:56.186Z,102926.67
2018-04-18T11:05:56.185Z,102927.45
2018-04-18T11:08:27.044Z,102927.85
2018-04-18T11:10:58.310Z,102918.37
2018-04-18T11:13:28.515Z,102920.64
2018-04-18T11:15:58.889Z,102921.52
2018-04-18T11:18:28.797Z,102923.34
2018-04-18T11:20:58.336Z,102915.05
2018-04-18T11:23:27.475Z,102912.88
2018-04-18T11:25:56.535Z,102912.44
2018-04-18T11:28:25.743Z,102910.59
2018-04-18T11:30:56.949Z,102919.19
2018-04-18T11:33:27.906Z,102914.66
2018-04-18T11:35:58.206Z,102910.59
2018-04-18T11:38:28.119Z,102906.09
2018-04-18T11:40:57.447Z,102908.28
2018-04-18T11:43:27.353Z,102905.09
2018-04-18T11:45:56.769Z,102901.48
2018-04-18T11:48:25.950Z,102894.70
2018-04-18T11:50:55.117Z,102893.36
2018-04-18T11:53:24.057Z,102889.78
2018-04-18T11:55:53.403Z,102888.42
2018-04-18T11:58:22.569Z,102889.77
2018-04-18T12:00:52.370Z,102880.73
2018-04-18T12:03:21.510Z,102878.42
2018-04-18T12:05:51.654Z,102887.89
2018-04-18T12:08:22.267Z,102882.91
2018-04-18T12:10:51.430Z,102884.70
2018-04-18T12:13:21.389Z,102884.22
2018-04-18T12:15:51.643Z,102881.95
2018-04-18T12:18:20.801Z,102882.81
2018-04-18T12:20:51.536Z,102888.23
2018-04-18T12:23:20.996Z,102890.45
2018-04-18T12:25:50.944Z,102878.70
2018-04-18T12:28:20.934Z,102883.20
2018-04-18T12:30:50.090Z,102881.23
2018-04-18T12:33:19.858Z,102880.31
2018-04-18T12:35:49.059Z,102877.21
2018-04-18T12:38:18.935Z,102877.64
2018-04-18T12:40:47.844Z,102868.56
2018-04-18T12:43:17.393Z,102869.96
2018-04-18T12:45:46.615Z,102869.48
2018-04-18T12:48:16.531Z,102864.89
2018-04-18T12:50:46.019Z,102864.84
2018-04-18T12:53:15.181Z,102863.49
2018-04-18T12:55:44.342Z,102858.08
2018-04-18T12:58:13.835Z,102853.14
2018-04-18T13:00:42.999Z,102860.59
2018-04-18T13:03:12.181Z,102850.63
2018-04-18T13:05:41.784Z,102846.66
2018-04-18T13:08:10.696Z,102846.23
2018-04-18T13:10:39.896Z,102846.70
2018-04-18T13:13:10.477Z,102843.08
2018-04-18T13:15:45.010Z,102840.72
2018-04-18T13:18:13.991Z,102834.05
2018-04-18T13:20:43.146Z,102836.13
2018-04-18T13:23:12.227Z,102833.84
2018-04-18T13:25:41.400Z,102832.05
2018-04-18T13:28:11.561Z,102829.25
2018-04-18T13:30:40.772Z,102829.72
2018-04-18T13:33:09.962Z,102827.80
2018-04-18T13:35:39.128Z,102820.48
2018-04-18T13:38:08.068Z,102819.61
2018-04-18T13:40:38.342Z,102816.41
2018-04-18T13:43:07.493Z,102811.00
2018-04-18T13:45:37.056Z,102807.33
2018-04-18T13:48:06.563Z,102809.56
2018-04-18T13:50:36.696Z,102805.39
2018-04-18T13:53:05.895Z,102801.77
2018-04-18T13:55:35.891Z,102799.06
2018-04-18T13:58:05.302Z,102799.98
2018-04-18T14:00:34.477Z,102798.13
2018-04-18T14:03:04.984Z,102799.92
2018-04-18T14:05:34.139Z,102798.00
2018-04-18T14:08:04.547Z,102796.30
2018-04-18T14:10:33.707Z,102796.64
2018-04-18T14:13:03.791Z,102790.30
2018-04-18T14:15:33.248Z,102781.05
2018-04-18T14:18:03.303Z,102786.36
2018-04-18T14:20:35.935Z,102788.20
2018-04-18T14:23:08.511Z,102780.30
2018-04-18T14:25:39.988Z,102781.11
2018-04-18T14:28:09.712Z,102782.56
2018-04-18T14:30:39.822Z,102783.58
2018-04-18T14:33:10.263Z,102783.63
2018-04-18T14:35:39.842Z,102774.98
2018-04-18T14:38:09.135Z,102771.02
2018-04-18T14:40:39.742Z,102773.19
2018-04-18T14:43:09.417Z,102777.73
2018-04-18T14:45:39.599Z,102773.67
2018-04-18T14:48:08.800Z,102774.26
2018-04-18T14:50:38.536Z,102773.39
2018-04-18T14:53:08.270Z,102777.25
2018-04-18T14:55:41.399Z,102771.40
2018-04-18T14:58:11.089Z,102772.32
2018-04-18T15:00:40.383Z,102763.77
2018-04-18T15:03:10.072Z,102761.97
2018-04-18T15:05:40.384Z,102755.64
2018-04-18T15:08:16.217Z,102750.66
2018-04-18T15:10:45.977Z,102748.83
2018-04-18T15:13:18.184Z,102747.80
2018-04-18T15:15:47.480Z,102750.70
2018-04-18T15:18:17.534Z,102747.80
2018-04-18T15:20:48.062Z,102748.12
2018-04-18T15:23:19.869Z,102736.86
2018-04-18T15:25:51.191Z,102740.00
2018-04-18T15:28:21.187Z,102742.37
2018-04-18T15:30:51.529Z,102737.89
2018-04-18T15:33:21.593Z,102738.80
2018-04-18T15:35:53.363Z,102741.61
2018-04-18T15:38:23.311Z,102740.10
2018-04-18T15:40:54.742Z,102737.24
2018-04-18T15:43:24.255Z,102735.89
2018-04-18T15:45:55.332Z,102724.52
2018-04-18T15:48:25.296Z,102729.72
2018-04-18T15:50:55.098Z,102727.34
2018-04-18T15:53:24.888Z,102724.20
2018-04-18T15:55:55.071Z,102723.77
2018-04-18T15:58:25.338Z,102720.63
2018-04-18T16:00:54.659Z,102720.72
2018-04-18T16:03:23.808Z,102722.95
2018-04-18T16:05:53.550Z,102723.86
2018-04-18T16:08:22.683Z,102718.08
2018-04-18T16:10:52.560Z,102719.43
2018-04-18T16:13:21.998Z,102714.60
2018-04-18T16:15:51.172Z,102712.77
2018-04-18T16:18:20.365Z,102713.14
2018-04-18T16:20:49.981Z,102706.10
2018-04-18T16:23:19.115Z,102701.38
2018-04-18T16:25:48.019Z,102703.83
2018-04-18T16:28:17.460Z,102701.70
2018-04-18T16:30:46.614Z,102696.92
2018-04-18T16:33:15.770Z,102699.73
2018-04-18T16:35:45.275Z,102693.09
2018-04-18T16:38:14.390Z,102692.66
2018-04-18T16:40:43.662Z,102689.56
2018-04-18T16:43:13.182Z,102684.26
2018-04-18T16:45:42.319Z,102691.56
2018-04-18T16:48:11.225Z,102686.26
2018-04-18T16:50:40.859Z,102691.28
2018-04-18T16:53:10.021Z,102690.47
2018-04-18T16:55:39.921Z,102685.55
2018-04-18T16:58:09.387Z,102693.34
2018-04-18T17:00:39.170Z,102684.88
2018-04-18T17:03:08.309Z,102686.24
2018-04-18T17:05:37.769Z,102692.57
2018-04-18T17:08:06.904Z,102689.09
2018-04-18T17:10:36.041Z,102685.62
2018-04-18T17:13:05.176Z,102689.73
2018-04-18T17:15:34.293Z,102692.92
2018-04-18T17:18:03.415Z,102690.27
2018-04-18T17:20:32.853Z,102686.70
2018-04-18T17:23:02.000Z,102685.78
2018-04-18T17:25:31.147Z,102687.71
2018-04-18T17:28:00.315Z,102690.42
2018-04-18T17:30:29.221Z,102687.72
2018-04-18T17:32:58.335Z,102680.17
2018-04-18T17:35:27.838Z,102674.78
2018-04-18T17:37:56.970Z,102684.25
2018-04-18T17:40:26.231Z,102673.47
2018-04-18T17:42:55.382Z,102670.87
2018-04-18T17:45:24.508Z,102676.28
2018-04-18T17:47:53.732Z,102670.01
2018-04-18T17:50:23.156Z,102667.73
2018-04-18T17:52:52.271Z,102672.76
2018-04-18T17:55:21.210Z,102671.07
2018-04-18T17:57:50.358Z,102675.08
2018-04-18T18:00:19.239Z,102677.45
2018-04-18T18:02:48.363Z,102670.30
2018-04-18T18:05:17.499Z,102675.42
2018-04-18T18:07:46.616Z,102667.64
2018-04-18T18:10:15.781Z,102673.05
2018-04-18T18:12:44.924Z,102668.95
2018-04-18T18:15:14.077Z,102670.41
2018-04-18T18:17:43.231Z,102664.56
2018-04-18T18:20:12.679Z,102662.00
2018-04-18T18:22:41.832Z,102659.79
2018-04-18T18:25:10.763Z,102659.35
2018-04-18T18:27:39.963Z,102656.75
2018-04-18T18:30:09.080Z,102662.02
2018-04-18T18:32:38.196Z,102664.38
2018-04-18T18:35:07.346Z,102660.80
2018-04-18T18:37:37.052Z,102666.27
2018-04-18T18:40:06.185Z,102666.31
2018-04-18T18:42:35.347Z,102665.01
2018-04-18T18:45:04.511Z,102661.39
2018-04-18T18:47:33.416Z,102664.53
2018-04-18T18:50:02.539Z,102670.31
2018-04-18T18:52:31.675Z,102672.27
2018-04-18T18:55:00.811Z,102674.58
2018-04-18T18:57:29.951Z,102679.94
2018-04-18T18:59:59.096Z,102676.89
2018-04-18T19:02:28.421Z,102677.72
2018-04-18T19:04:57.822Z,102678.34
2018-04-18T19:07:26.961Z,102676.03
2018-04-18T19:09:56.827Z,102673.38
2018-04-18T19:12:26.132Z,102670.66
2018-04-18T19:14:55.251Z,102679.65
2018-04-18T19:17:24.384Z,102674.20
2018-04-18T19:19:53.815Z,102675.55
2018-04-18T19:22:22.966Z,102683.66
2018-04-18T19:24:52.302Z,102683.65
2018-04-18T19:27:21.728Z,102685.92
2018-04-18T19:29:50.891Z,102685.49
2018-04-18T19:32:20.015Z,102685.97
2018-04-18T19:34:49.150Z,102685.92
2018-04-18T19:37:18.278Z,102683.37
2018-04-18T19:39:47.407Z,102687.86
2018-04-18T19:42:16.325Z,102680.66
2018-04-18T19:44:45.442Z,102684.72
2018-04-18T19:47:14.569Z,102679.31
2018-04-18T19:49:44.023Z,102685.58
2018-04-18T19:52:13.143Z,102685.58
2018-04-18T19:54:42.298Z,102686.03
2018-04-18T19:57:11.454Z,102685.11
2018-04-18T19:59:40.572Z,102689.69
2018-04-18T20:02:09.510Z,102683.33
2018-04-18T20:04:39.075Z,102688.63
2018-04-18T20:07:08.203Z,102695.20
2018-04-18T20:09:37.820Z,102685.14
2018-04-18T20:12:07.243Z,102688.13
2018-04-18T20:14:36.372Z,102692.00
2018-04-18T20:17:05.507Z,102695.04
2018-04-18T20:19:34.995Z,102690.43
2018-04-18T20:22:04.108Z,102688.51
2018-04-18T20:24:38.642Z,102688.84
2018-04-18T20:27:07.770Z,102685.21
2018-04-18T20:29:36.891Z,102688.73
2018-04-18T20:32:08.399Z,102691.33
2018-04-18T20:34:38.224Z,102692.16
2018-04-18T20:37:07.554Z,102692.97
2018-04-18T20:39:37.271Z,102692.44
2018-04-18T20:42:06.959Z,102696.41
2018-04-18T20:44:36.171Z,102698.13
2018-04-18T20:47:05.843Z,102695.37
2018-04-18T20:49:35.798Z,102693.05
2018-04-18T20:52:04.979Z,102696.09
2018-04-18T20:54:34.188Z,102701.45
2018-04-18T20:57:04.332Z,102704.59
2018-04-18T20:59:34.656Z,102701.79
2018-04-18T21:02:04.228Z,102700.33
2018-04-18T21:04:33.365Z,102701.23
2018-04-18T21:07:02.499Z,102700.75
2018-04-18T21:09:31.931Z,102703.80
2018-04-18T21:12:01.051Z,102702.02
2018-04-18T21:14:30.171Z,102701.95
2018-04-18T21:16:59.326Z,102701.91
2018-04-18T21:19:28.476Z,102698.72
2018-04-18T21:21:57.824Z,102702.73
2018-04-18T21:24:27.327Z,102695.91
2018-04-18T21:26:56.447Z,102698.17
2018-04-18T21:29:25.565Z,102691.80
2018-04-18T21:31:54.712Z,102690.00
2018-04-18T21:34:23.850Z,102684.55
2018-04-18T21:36:52.972Z,102689.04
2018-04-18T21:39:22.439Z,102691.30
2018-04-18T21:41:51.324Z,102696.66
2018-04-18T21:44:20.448Z,102691.67
2018-04-18T21:46:49.902Z,102687.60
2018-04-18T21:49:19.045Z,102687.99
2018-04-18T21:51:48.164Z,102686.64
2018-04-18T21:54:17.695Z,102690.22
2018-04-18T21:56:46.806Z,102690.17
2018-04-18T21:59:15.920Z,102686.58
2018-04-18T22:01:45.587Z,102683.39
2018-04-18T22:04:14.707Z,102682.42
2018-04-18T22:06:43.818Z,102683.78
2018-04-18T22:09:13.080Z,102687.41
2018-04-18T22:11:42.209Z,102676.53
2018-04-18T22:14:11.327Z,102684.22
2018-04-18T22:16:40.825Z,102676.09
2018-04-18T22:19:10.722Z,102674.73
2018-04-18T22:21:39.612Z,102674.73
2018-04-18T22:24:09.084Z,102676.53
2018-04-18T22:26:38.206Z,102681.06
2018-04-18T22:29:07.199Z,102681.93
2018-04-18T22:31:36.347Z,102675.59
2018-04-18T22:34:05.479Z,102676.91
2018-04-18T22:36:34.602Z,102678.68
2018-04-18T22:39:03.571Z,102669.22
2018-04-18T22:41:33.060Z,102672.80
2018-04-18T22:44:02.185Z,102675.55
2018-04-18T22:46:31.579Z,102667.85
2018-04-18T22:49:00.701Z,102661.95
2018-04-18T22:51:29.815Z,102659.27
2018-04-18T22:53:59.151Z,102655.67
2018-04-18T22:56:28.272Z,102655.20
2018-04-18T22:58:57.386Z,102651.56
2018-04-18T23:01:26.841Z,102648.43
2018-04-18T23:03:55.961Z,102648.91
2018-04-18T23:06:25.078Z,102648.09
2018-04-18T23:08:54.536Z,102651.77
2018-04-18T23:11:23.669Z,102645.07
2018-04-18T23:13:52.838Z,102643.87
2018-04-18T23:16:22.239Z,102637.22
2018-04-18T23:18:51.127Z,102645.94
2018-04-18T23:21:20.255Z,102637.48
2018-04-18T23:23:50.035Z,102637.98
2018-04-18T23:26:19.154Z,102633.58
2018-04-18T23:28:48.299Z,102631.80
2018-04-18T23:31:17.835Z,102628.70
2018-04-18T23:33:46.968Z,102632.83
2018-04-18T23:36:16.078Z,102621.72
2018-04-18T23:38:45.216Z,102612.25
2018-04-18T23:41:14.333Z,102618.59
2018-04-18T23:43:43.454Z,102620.37
2018-04-18T23:46:13.029Z,102605.11
2018-04-18T23:48:42.158Z,102606.09
2018-04-18T23:51:11.281Z,102603.38
2018-04-18T23:53:40.659Z,102604.78
2018-04-18T23:56:09.631Z,102603.48
2018-04-18T23:58:38.827Z,102597.20
